This is the latest recevied weather packets stored in our database for station/object N5SRF. If no packets are shown the sender has not sent any weather packets the latest 10 day(s).
| Time | Temp. | Humidity | Pressure | Rain* | Wind** | Luminosity | Snow |
|---|---|---|---|---|---|---|---|
| 1788128529 | 36.11° C | 46% | 1017.1 hPa | 0 mm | - | 215 W/m² | - |
| 1788128225 | 36.11° C | 45% | 1017.1 hPa | 0 mm | - | 300 W/m² | - |
| 1788127922 | 35.56° C | 47% | 1017.1 hPa | 0 mm | - | 148 W/m² | - |
| 1788127617 | 36.11° C | 47% | 1017.1 hPa | 0 mm | - | 96 W/m² | - |
| 1788127315 | 36.11° C | 46% | 1017.1 hPa | 0 mm | - | 92 W/m² | - |
| 1788127014 | 35.56° C | 47% | 1017.3 hPa | 0 mm | - | 263 W/m² | - |
| 1788126709 | 35.56° C | 47% | 1017.1 hPa | 0 mm | - | 94 W/m² | - |
| 1788126405 | 35.56° C | 47% | 1017.3 hPa | 0 mm | - | 173 W/m² | - |
| 1788126099 | 36.11° C | 46% | 1017.2 hPa | 0 mm | - | 114 W/m² | - |
| 1788125798 | 36.67° C | 45% | 1017.3 hPa | 0 mm | - | 88 W/m² | - |
| 1788125494 | 36.11° C | 45% | 1017.5 hPa | 0 mm | - | 442 W/m² | - |
| 1788125190 | 35.56° C | 46% | 1017.5 hPa | 0 mm | - | 425 W/m² | - |
| 1788124885 | 36.11° C | 45% | 1017.6 hPa | 0 mm | - | 113 W/m² | - |
| 1788124580 | 36.11° C | 45% | 1017.7 hPa | 0 mm | - | 506 W/m² | - |
| 1788124279 | 35.56° C | 47% | 1017.7 hPa | 0 mm | - | 244 W/m² | - |
| 1788123975 | 37.22° C | 43% | 1017.6 hPa | 0 mm | - | 182 W/m² | - |
| 1788123674 | 37.22° C | 43% | 1017.9 hPa | 0 mm | - | 529 W/m² | - |
| 1788123371 | 37.22° C | 43% | 1017.9 hPa | 0 mm | - | 535 W/m² | - |
| 1788123067 | 36.67° C | 44% | 1018 hPa | 0 mm | - | 552 W/m² | - |
| 1788122766 | 36.67° C | 46% | 1017.9 hPa | 0 mm | - | 232 W/m² | - |
| 1788122465 | 35.56° C | 47% | 1018.3 hPa | 0 mm | - | 613 W/m² | - |
| 1788122161 | 35.56° C | 46% | 1018.4 hPa | 0 mm | - | 120 W/m² | - |
| 1788121856 | 36.67° C | 46% | 1018.5 hPa | 0 mm | - | 122 W/m² | - |
| 1788121555 | 36.11° C | 46% | 1018.6 hPa | 0 mm | - | 502 W/m² | - |
| 1788121252 | 35.56° C | 46% | 1018.3 hPa | 0 mm | - | 227 W/m² | - |
* Rain latest hour (hover to see other rain measurements)
** Current wind speed in m/s (hover to see current wind gust speed)